Time;durP1;ratioP1;P1;durP2;ratioP2;P2;SDS_P1;SDS_P2;PMS_P1;PMS_P2;Temp;Humidity;BMP_temperature;BMP_pressure;BME280_temperature;BME280_humidity;BME280_pressure;Samples;Min_cycle;Max_cycle;Signal;HPM_P1;HPM_P2
2021/12/22 17:10:29;;;;;;;44.70;23.30;;;;;;;;;;5060322;28;20423;-67
2021/12/22 17:12:55;;;;;;;33.92;17.98;;;;;;;;;;5046617;28;20021;-67
2021/12/22 17:15:22;;;;;;;32.50;17.65;;;;;;;;;;5046452;28;20389;-68
2021/12/22 17:17:48;;;;;;;28.73;15.60;;;;;;;;;;5046727;28;20075;-67
2021/12/22 17:20:14;;;;;;;25.75;15.77;;;;;;;;;;5046029;28;20104;-67
2021/12/22 17:22:40;;;;;;;22.90;9.80;;;;;;;;;;5045451;28;20583;-66
2021/12/22 17:25:08;;;;;;;23.15;10.95;;;;;;;;;;5045286;28;20025;-67
2021/12/22 17:27:34;;;;;;;20.55;10.25;;;;;;;;;;5046073;28;20451;-67
2021/12/22 17:30:00;;;;;;;19.35;7.03;;;;;;;;;;5045850;28;20388;-68
2021/12/22 17:32:26;;;;;;;15.25;6.22;;;;;;;;;;5045279;28;20057;-66
2021/12/22 17:34:52;;;;;;;45.75;38.40;;;;;;;;;;5046071;28;20021;-67
2021/12/22 17:37:18;;;;;;;16.20;10.23;;;;;;;;;;5046028;28;20064;-66
2021/12/22 17:39:44;;;;;;;16.73;5.63;;;;;;;;;;5046841;28;20029;-66
2021/12/22 17:42:10;;;;;;;12.93;4.35;;;;;;;;;;5046190;28;20500;-67
2021/12/22 17:44:36;;;;;;;12.88;5.22;;;;;;;;;;5046690;28;20381;-68
2021/12/22 17:47:03;;;;;;;13.60;5.00;;;;;;;;;;5045369;28;20108;-67
2021/12/22 17:49:29;;;;;;;14.07;4.57;;;;;;;;;;5046039;28;20103;-68
2021/12/22 17:51:55;;;;;;;26.13;5.07;;;;;;;;;;5045514;28;20028;-68
2021/12/22 17:54:21;;;;;;;17.02;4.57;;;;;;;;;;5046356;28;20112;-66
2021/12/22 17:56:47;;;;;;;21.15;4.38;;;;;;;;;;5046245;28;20391;-67
2021/12/22 17:59:14;;;;;;;19.60;5.20;;;;;;;;;;5045969;28;20361;-68
2021/12/22 18:01:42;;;;;;;19.73;4.95;;;;;;;;;;5046325;28;20122;-68
2021/12/22 18:04:08;;;;;;;18.25;5.28;;;;;;;;;;5046160;28;20466;-66
2021/12/22 18:06:35;;;;;;;26.55;7.82;;;;;;;;;;5047655;28;20346;-66
2021/12/22 18:09:04;;;;;;;31.08;11.70;;;;;;;;;;5047387;28;20045;-67
2021/12/22 18:11:31;;;;;;;29.67;16.83;;;;;;;;;;5056863;28;20033;-67
2021/12/22 18:13:57;;;;;;;29.08;13.90;;;;;;;;;;5048795;28;20460;-67
2021/12/22 18:16:23;;;;;;;25.13;8.25;;;;;;;;;;5051195;28;20025;-67
2021/12/22 18:18:49;;;;;;;21.35;5.20;;;;;;;;;;5049076;28;20021;-67
2021/12/22 18:21:16;;;;;;;21.08;7.43;;;;;;;;;;5032491;28;20468;-67
2021/12/22 18:23:42;;;;;;;20.65;7.80;;;;;;;;;;5030569;28;20029;-67
2021/12/22 18:26:08;;;;;;;23.20;14.32;;;;;;;;;;5039517;28;20375;-67
2021/12/22 18:28:34;;;;;;;16.20;5.78;;;;;;;;;;5038213;28;20054;-67
2021/12/22 18:31:00;;;;;;;10.00;3.55;;;;;;;;;;5045093;28;20025;-66
2021/12/22 18:33:27;;;;;;;11.93;3.78;;;;;;;;;;5035641;28;20495;-66
2021/12/22 18:35:59;;;;;;;8.95;2.95;;;;;;;;;;5032141;28;20034;-65
2021/12/22 18:38:27;;;;;;;13.10;3.50;;;;;;;;;;5032469;28;20055;-68
2021/12/22 18:41:08;;;;;;;13.32;3.63;;;;;;;;;;5032532;28;20029;-68
2021/12/22 18:43:34;;;;;;;10.40;3.67;;;;;;;;;;5012755;28;20072;-66
2021/12/22 18:46:01;;;;;;;14.18;3.72;;;;;;;;;;5027496;28;20029;-68
2021/12/22 18:48:27;;;;;;;18.05;4.63;;;;;;;;;;5012426;28;20026;-68
2021/12/22 18:50:55;;;;;;;12.02;4.00;;;;;;;;;;5016881;28;20021;-68
2021/12/22 18:53:22;;;;;;;11.90;4.05;;;;;;;;;;5050668;28;20025;-68
2021/12/22 18:55:48;;;;;;;18.50;5.03;;;;;;;;;;5052085;28;20021;-68
2021/12/22 18:58:14;;;;;;;21.42;4.95;;;;;;;;;;5051444;28;20387;-68
2021/12/22 19:00:41;;;;;;;16.13;4.72;;;;;;;;;;5031683;28;20017;-70
2021/12/22 19:03:07;;;;;;;9.77;4.28;;;;;;;;;;5036150;28;20352;-70
2021/12/22 19:05:37;;;;;;;18.50;4.90;;;;;;;;;;5034386;28;20108;-69
2021/12/22 19:08:04;;;;;;;21.83;5.00;;;;;;;;;;5032230;28;20476;-68
2021/12/22 19:10:31;;;;;;;15.18;3.78;;;;;;;;;;5038428;28;20036;-69
2021/12/22 19:12:57;;;;;;;19.95;6.60;;;;;;;;;;5038035;28;20282;-69
2021/12/22 19:15:25;;;;;;;24.00;6.38;;;;;;;;;;5031532;28;20029;-69
2021/12/22 19:17:51;;;;;;;22.17;5.72;;;;;;;;;;5030907;28;20029;-68
2021/12/22 19:20:17;;;;;;;26.25;7.35;;;;;;;;;;5037627;28;20522;-69
2021/12/22 19:22:43;;;;;;;23.92;5.53;;;;;;;;;;5037296;28;20057;-69
2021/12/22 19:25:11;;;;;;;25.92;5.20;;;;;;;;;;5037589;28;20041;-69
2021/12/22 19:27:37;;;;;;;16.80;4.60;;;;;;;;;;5041799;28;20029;-69
2021/12/22 19:30:04;;;;;;;12.70;4.35;;;;;;;;;;5042773;28;20035;-69
2021/12/22 19:32:30;;;;;;;13.55;4.97;;;;;;;;;;5042351;28;20044;-68
2021/12/22 19:34:59;;;;;;;18.23;4.28;;;;;;;;;;5031427;28;20029;-68
2021/12/22 19:37:25;;;;;;;12.07;3.72;;;;;;;;;;5032400;28;20536;-68
2021/12/22 19:39:51;;;;;;;19.27;4.20;;;;;;;;;;5032485;28;20029;-67
2021/12/22 19:42:17;;;;;;;22.13;4.60;;;;;;;;;;5032136;28;20108;-68
2021/12/22 19:44:43;;;;;;;15.05;3.60;;;;;;;;;;5036136;28;20025;-68
2021/12/22 19:47:10;;;;;;;17.33;8.60;;;;;;;;;;5047316;28;20023;-67
2021/12/22 19:49:37;;;;;;;12.20;8.18;;;;;;;;;;5044453;28;20034;-67
2021/12/22 19:52:03;;;;;;;20.98;8.20;;;;;;;;;;5030995;28;20372;-66
2021/12/22 19:54:29;;;;;;;17.75;6.13;;;;;;;;;;5035221;28;20503;-67
2021/12/22 19:56:55;;;;;;;21.15;5.05;;;;;;;;;;5033861;28;20346;-67
2021/12/22 19:59:21;;;;;;;11.10;4.18;;;;;;;;;;5037061;28;20097;-67
2021/12/22 20:01:47;;;;;;;11.35;4.25;;;;;;;;;;5030608;28;20080;-67
2021/12/22 20:04:13;;;;;;;14.23;3.83;;;;;;;;;;5032014;28;20026;-66
2021/12/22 20:06:40;;;;;;;7.15;3.65;;;;;;;;;;5031708;28;20515;-66
2021/12/22 20:09:07;;;;;;;10.85;4.30;;;;;;;;;;5031747;28;20112;-67
2021/12/22 20:11:33;;;;;;;12.07;3.47;;;;;;;;;;5045993;28;20032;-66
2021/12/22 20:13:59;;;;;;;10.18;2.70;;;;;;;;;;5032663;28;20108;-67
2021/12/22 20:16:28;;;;;;;7.65;2.75;;;;;;;;;;5030164;28;20064;-66
2021/12/22 20:18:54;;;;;;;8.88;2.97;;;;;;;;;;5038364;28;20037;-66
2021/12/22 20:21:20;;;;;;;8.40;3.20;;;;;;;;;;5029946;28;20041;-66
2021/12/22 20:23:47;;;;;;;12.70;3.05;;;;;;;;;;5030346;28;20041;-66
2021/12/22 20:26:13;;;;;;;11.35;3.00;;;;;;;;;;5030467;28;20033;-66
2021/12/22 20:28:39;;;;;;;8.77;2.38;;;;;;;;;;5036503;28;20551;-66
2021/12/22 20:31:05;;;;;;;10.70;3.25;;;;;;;;;;5033885;28;20096;-67
2021/12/22 20:33:31;;;;;;;12.40;3.00;;;;;;;;;;5036308;28;20036;-67
2021/12/22 20:35:57;;;;;;;11.35;3.42;;;;;;;;;;5050000;28;20025;-66
2021/12/22 20:38:23;;;;;;;9.50;2.75;;;;;;;;;;5030342;28;20025;-67
2021/12/22 20:40:49;;;;;;;14.10;3.75;;;;;;;;;;5029463;28;20061;-66
2021/12/22 20:43:16;;;;;;;12.10;3.47;;;;;;;;;;5032463;28;20059;-66
2021/12/22 20:45:47;;;;;;;13.55;4.03;;;;;;;;;;5035903;28;20021;-66
2021/12/22 20:48:13;;;;;;;12.80;3.10;;;;;;;;;;5031634;28;20167;-66
2021/12/22 20:50:42;;;;;;;20.13;5.30;;;;;;;;;;5029538;28;20022;-66
2021/12/22 20:53:09;;;;;;;19.63;4.13;;;;;;;;;;5031947;28;20029;-66
2021/12/22 20:55:35;;;;;;;14.50;4.70;;;;;;;;;;5029603;28;20030;-65
2021/12/22 20:58:01;;;;;;;17.30;3.88;;;;;;;;;;5030977;28;20112;-65
2021/12/22 21:00:27;;;;;;;12.65;3.22;;;;;;;;;;5047463;28;20044;-66
2021/12/22 21:02:53;;;;;;;12.20;3.22;;;;;;;;;;5048435;28;20040;-66
2021/12/22 21:05:19;;;;;;;13.00;3.33;;;;;;;;;;5049484;28;20025;-65
2021/12/22 21:07:46;;;;;;;15.90;3.70;;;;;;;;;;5039456;28;20025;-66
2021/12/22 21:10:13;;;;;;;13.98;3.70;;;;;;;;;;5041579;28;20048;-66
2021/12/22 21:12:39;;;;;;;16.48;4.07;;;;;;;;;;5049804;28;20453;-67
2021/12/22 21:15:06;;;;;;;15.98;3.92;;;;;;;;;;5038312;28;20021;-66
2021/12/22 21:17:32;;;;;;;11.98;3.50;;;;;;;;;;5030734;28;20029;-67
2021/12/22 21:19:58;;;;;;;15.55;5.05;;;;;;;;;;5038368;28;20035;-66
2021/12/22 21:22:24;;;;;;;13.75;3.50;;;;;;;;;;5033627;28;20084;-66
2021/12/22 21:24:53;;;;;;;12.27;3.08;;;;;;;;;;5048057;28;20071;-67
2021/12/22 21:27:20;;;;;;;12.40;2.70;;;;;;;;;;5029965;28;20595;-67
2021/12/22 21:29:46;;;;;;;9.90;2.53;;;;;;;;;;5030848;28;20052;-66
2021/12/22 21:32:12;;;;;;;11.52;3.67;;;;;;;;;;5030790;28;20029;-66
2021/12/22 21:34:38;;;;;;;14.73;2.75;;;;;;;;;;5028673;28;20024;-66
2021/12/22 21:37:04;;;;;;;12.50;2.50;;;;;;;;;;5030824;28;20026;-66
2021/12/22 21:39:30;;;;;;;12.20;2.80;;;;;;;;;;5041648;28;20074;-66
2021/12/22 21:41:56;;;;;;;12.45;3.15;;;;;;;;;;5048698;28;20686;-66
2021/12/22 21:44:23;;;;;;;16.15;2.92;;;;;;;;;;5050205;28;20138;-67
2021/12/22 21:46:49;;;;;;;21.52;3.03;;;;;;;;;;5050445;28;20380;-67
2021/12/22 21:49:16;;;;;;;17.27;2.95;;;;;;;;;;5044080;28;20029;-67
2021/12/22 21:51:42;;;;;;;16.35;3.80;;;;;;;;;;5030672;28;20456;-67
2021/12/22 21:54:08;;;;;;;20.05;4.25;;;;;;;;;;5049417;28;20051;-66
2021/12/22 21:56:34;;;;;;;18.85;3.42;;;;;;;;;;5039953;28;20091;-66
2021/12/22 21:59:01;;;;;;;19.15;3.28;;;;;;;;;;5033523;28;20037;-67
2021/12/22 22:01:27;;;;;;;15.13;3.33;;;;;;;;;;5032570;28;20423;-67
2021/12/22 22:03:53;;;;;;;13.55;2.72;;;;;;;;;;5041210;28;20123;-67
2021/12/22 22:06:19;;;;;;;16.30;3.33;;;;;;;;;;5036370;28;20033;-66
2021/12/22 22:08:48;;;;;;;16.73;2.63;;;;;;;;;;5041391;28;20049;-67
2021/12/22 22:11:14;;;;;;;10.48;2.58;;;;;;;;;;5036638;28;20028;-66
2021/12/22 22:13:40;;;;;;;13.18;3.17;;;;;;;;;;5033741;28;20040;-66
2021/12/22 22:16:06;;;;;;;14.30;2.40;;;;;;;;;;5037626;28;20017;-66
2021/12/22 22:18:32;;;;;;;11.00;2.20;;;;;;;;;;5032048;28;20030;-66
2021/12/22 22:20:58;;;;;;;8.48;2.22;;;;;;;;;;5033342;28;20477;-66
2021/12/22 22:23:24;;;;;;;9.15;2.50;;;;;;;;;;5033846;28;20079;-66
2021/12/22 22:25:50;;;;;;;12.23;2.85;;;;;;;;;;5031604;28;20098;-66
2021/12/22 22:28:17;;;;;;;9.13;2.22;;;;;;;;;;5045645;28;20037;-66
2021/12/22 22:30:43;;;;;;;8.45;2.47;;;;;;;;;;5053699;28;20468;-66
2021/12/22 22:33:09;;;;;;;8.20;1.90;;;;;;;;;;5053440;28;20063;-65
2021/12/22 22:35:35;;;;;;;10.00;2.30;;;;;;;;;;5051275;28;20033;-66
2021/12/22 22:38:01;;;;;;;11.68;2.60;;;;;;;;;;5053116;28;20037;-65
2021/12/22 22:40:27;;;;;;;10.48;2.17;;;;;;;;;;5053313;28;20025;-65
2021/12/22 22:42:53;;;;;;;7.80;2.55;;;;;;;;;;5052763;28;20025;-65
2021/12/22 22:45:20;;;;;;;10.25;1.98;;;;;;;;;;5038537;28;20034;-66
2021/12/22 22:47:47;;;;;;;6.90;2.03;;;;;;;;;;5036164;28;20111;-66
2021/12/22 22:50:13;;;;;;;6.95;1.38;;;;;;;;;;5032711;28;20033;-65
2021/12/22 22:52:40;;;;;;;5.00;1.45;;;;;;;;;;5033452;28;21092;-65
2021/12/22 22:55:08;;;;;;;4.47;1.23;;;;;;;;;;5033886;28;20029;-66
2021/12/22 22:57:34;;;;;;;5.55;1.30;;;;;;;;;;5021073;28;20022;-66
2021/12/22 23:00:02;;;;;;;8.00;2.00;;;;;;;;;;5018069;28;20025;-66
2021/12/22 23:02:28;;;;;;;3.42;1.40;;;;;;;;;;5033118;28;20029;-65
2021/12/22 23:04:54;;;;;;;6.20;1.30;;;;;;;;;;5032608;28;20029;-66
2021/12/22 23:07:20;;;;;;;5.45;1.85;;;;;;;;;;5032079;28;20033;-66
2021/12/22 23:09:46;;;;;;;4.13;1.00;;;;;;;;;;5030326;28;20136;-66
2021/12/22 23:12:12;;;;;;;4.25;0.90;;;;;;;;;;5021599;28;20032;-65
2021/12/22 23:14:39;;;;;;;3.65;0.95;;;;;;;;;;5012612;28;20436;-67
2021/12/22 23:17:08;;;;;;;5.40;0.90;;;;;;;;;;5021004;28;20536;-66
2021/12/22 23:19:34;;;;;;;6.85;1.10;;;;;;;;;;5031606;28;20028;-66
2021/12/22 23:22:00;;;;;;;3.80;0.80;;;;;;;;;;5031368;28;20116;-66
2021/12/22 23:24:26;;;;;;;4.28;1.10;;;;;;;;;;5031302;28;20029;-66
2021/12/22 23:26:52;;;;;;;7.00;1.40;;;;;;;;;;5020870;28;20034;-66
2021/12/22 23:29:18;;;;;;;4.50;1.33;;;;;;;;;;5011897;28;20029;-66
2021/12/22 23:31:45;;;;;;;2.50;1.00;;;;;;;;;;5017218;28;20533;-65
2021/12/22 23:34:11;;;;;;;7.32;1.00;;;;;;;;;;5029539;28;20770;-67
2021/12/22 23:36:44;;;;;;;8.32;1.25;;;;;;;;;;5030067;28;20032;-67
2021/12/22 23:39:23;;;;;;;4.32;1.50;;;;;;;;;;5008613;28;20018;-66
2021/12/22 23:42:20;;;;;;;5.00;1.08;;;;;;;;;;5012158;28;20025;-66
2021/12/22 23:50:15;;;;;;;2.15;0.70;;;;;;;;;;5028330;28;20075;-67
2021/12/22 23:52:41;;;;;;;3.33;0.88;;;;;;;;;;5020165;28;20452;-66
2021/12/22 23:55:08;;;;;;;3.97;1.15;;;;;;;;;;5026080;28;20026;-66
2021/12/22 23:57:34;;;;;;;2.20;0.90;;;;;;;;;;5027273;28;20030;-66
